Time;durP1;ratioP1;P1;durP2;ratioP2;P2;SDS_P1;SDS_P2;PMS_P1;PMS_P2;Temp;Humidity;BMP_temperature;BMP_pressure;BME280_temperature;BME280_humidity;BME280_pressure;Samples;Min_cycle;Max_cycle;Signal;HPM_P1;HPM_P2
2023/09/30 00:00:44;;;;;;;15.15;5.65;;;;;;;16.99;60.75;63751.94;5030795;28;20222;-79
2023/09/30 00:03:14;;;;;;;8.27;5.30;;;;;;;17.01;60.67;63756.06;5029193;28;20190;-78
2023/09/30 00:05:40;;;;;;;9.80;5.47;;;;;;;17.03;59.41;63763.81;5028915;28;20222;-76
2023/09/30 00:08:09;;;;;;;8.50;5.65;;;;;;;17.04;60.15;63764.34;5028501;28;20198;-79
2023/09/30 00:10:37;;;;;;;6.13;5.10;;;;;;;17.04;59.62;63759.19;5029503;28;20226;-80
2023/09/30 00:13:06;;;;;;;6.25;5.60;;;;;;;17.08;59.12;63763.88;5029943;28;20198;-80
2023/09/30 00:15:33;;;;;;;5.93;5.00;;;;;;;17.09;59.74;63764.91;5030436;28;20242;-78
2023/09/30 00:18:03;;;;;;;9.80;5.55;;;;;;;17.08;59.22;63768.50;5030201;28;20556;-78
2023/09/30 00:20:30;;;;;;;5.07;4.32;;;;;;;17.11;59.63;63769.06;5029885;28;20248;-79
2023/09/30 00:22:58;;;;;;;6.60;4.57;;;;;;;17.10;60.75;63768.53;5031110;28;20208;-81
2023/09/30 00:25:28;;;;;;;9.77;4.32;;;;;;;17.10;59.65;63768.00;5031149;28;20534;-79
2023/09/30 00:27:55;;;;;;;10.43;5.53;;;;;;;17.14;59.36;63774.75;5031198;28;20199;-80
2023/09/30 00:30:24;;;;;;;7.50;4.65;;;;;;;17.15;60.63;63775.78;5032288;28;20518;-79
2023/09/30 00:32:51;;;;;;;5.85;4.68;;;;;;;17.11;61.26;63767.00;5049519;28;20193;-78
2023/09/30 00:35:18;;;;;;;9.38;4.45;;;;;;;17.12;60.88;63765.47;5052235;28;20232;-79
2023/09/30 00:37:45;;;;;;;6.85;4.75;;;;;;;17.14;60.52;63774.75;5051156;28;20193;-80
2023/09/30 00:40:13;;;;;;;7.90;4.25;;;;;;;17.03;61.82;63763.81;5051517;28;20422;-78
2023/09/30 00:42:41;;;;;;;5.30;4.63;;;;;;;16.99;61.45;63756.56;5049053;28;20434;-80
2023/09/30 00:45:10;;;;;;;8.40;4.00;;;;;;;16.98;62.09;63758.59;5047991;28;20231;-78
2023/09/30 00:47:39;;;;;;;13.35;4.95;;;;;;;17.02;61.66;63762.78;5049022;28;20193;-77
2023/09/30 00:50:10;;;;;;;6.60;4.40;;;;;;;17.03;60.68;63761.22;5051657;28;20229;-78
2023/09/30 00:52:39;;;;;;;7.30;4.80;;;;;;;17.07;59.63;63764.88;5049295;28;20236;-80
2023/09/30 00:55:10;;;;;;;12.90;5.07;;;;;;;17.18;59.65;63776.88;5051306;28;20217;-78
2023/09/30 00:57:40;;;;;;;8.95;4.47;;;;;;;17.15;59.89;63771.16;5048183;28;20216;-80
2023/09/30 01:00:11;;;;;;;4.97;4.45;;;;;;;17.20;60.33;63773.28;5050106;28;20221;-79
2023/09/30 01:02:44;;;;;;;5.70;5.18;;;;;;;17.18;59.77;63771.19;5051104;28;20209;-80
2023/09/30 01:05:12;;;;;;;11.25;4.80;;;;;;;17.22;58.58;63777.94;5050028;28;20235;-80
2023/09/30 01:07:39;;;;;;;7.70;4.85;;;;;;;17.22;58.61;63780.50;5046581;28;20197;-78
2023/09/30 01:10:07;;;;;;;7.28;5.00;;;;;;;17.25;58.58;63779.00;5047248;28;20279;-79
2023/09/30 01:12:34;;;;;;;12.02;4.40;;;;;;;17.24;59.76;63780.00;5047121;28;20205;-77
2023/09/30 01:15:06;;;;;;;5.72;3.83;;;;;;;17.19;59.62;63775.31;5043968;28;20320;-77
2023/09/30 01:17:34;;;;;;;7.32;4.68;;;;;;;17.23;60.58;63784.13;5028865;28;20198;-79
2023/09/30 01:20:05;;;;;;;8.02;4.40;;;;;;;17.26;60.64;63787.75;5028404;28;20217;-80
2023/09/30 01:22:34;;;;;;;4.22;3.92;;;;;;;17.30;60.61;63783.69;5028265;28;20201;-79
2023/09/30 01:25:01;;;;;;;9.20;4.35;;;;;;;17.30;60.80;63788.81;5027159;28;20281;-78
2023/09/30 01:27:29;;;;;;;4.90;4.28;;;;;;;17.26;60.41;63782.09;5030475;28;20221;-79
2023/09/30 01:29:58;;;;;;;7.93;3.78;;;;;;;17.24;62.67;63783.09;5028329;28;20234;-78
2023/09/30 01:32:25;;;;;;;7.70;4.25;;;;;;;17.18;60.01;63774.28;5048379;28;20219;-80
2023/09/30 01:34:52;;;;;;;4.88;4.35;;;;;;;17.24;61.52;63782.56;5047401;28;20417;-77
2023/09/30 01:37:21;;;;;;;8.70;4.55;;;;;;;17.26;61.53;63787.22;5045453;28;20208;-78
2023/09/30 01:39:50;;;;;;;7.20;4.38;;;;;;;17.26;61.86;63779.50;5045885;28;20533;-76
2023/09/30 01:42:17;;;;;;;9.00;4.20;;;;;;;17.27;62.56;63785.72;5047160;28;20232;-78
2023/09/30 01:44:44;;;;;;;6.65;4.80;;;;;;;17.24;63.12;63783.09;5048216;28;20251;-78
2023/09/30 01:47:12;;;;;;;9.38;4.30;;;;;;;17.25;61.05;63786.19;5047544;28;20206;-77
2023/09/30 01:49:40;;;;;;;7.80;4.68;;;;;;;17.20;59.93;63781.50;5047449;28;20300;-79
2023/09/30 01:52:07;;;;;;;6.68;4.88;;;;;;;17.23;61.95;63781.53;5047093;28;20198;-77
2023/09/30 01:54:34;;;;;;;8.63;4.75;;;;;;;17.19;62.77;63779.94;5047771;28;20248;-77
2023/09/30 01:57:02;;;;;;;6.60;4.50;;;;;;;17.16;63.58;63769.09;5047824;28;20205;-78
2023/09/30 01:59:30;;;;;;;6.07;4.90;;;;;;;17.13;62.93;63766.50;5046932;28;20279;-78
2023/09/30 02:02:02;;;;;;;6.85;4.05;;;;;;;17.09;61.57;63764.38;5047758;28;20212;-78
2023/09/30 02:04:34;;;;;;;5.20;4.00;;;;;;;17.12;60.74;63772.66;5050853;28;20216;-78
2023/09/30 02:07:02;;;;;;;8.13;4.85;;;;;;;17.09;61.17;63764.38;5047928;28;20225;-78
2023/09/30 02:09:29;;;;;;;7.78;4.40;;;;;;;17.08;61.62;63760.78;5047386;28;20272;-78
2023/09/30 02:11:56;;;;;;;6.22;4.05;;;;;;;17.04;60.51;63759.19;5049757;28;20225;-77
2023/09/30 02:14:24;;;;;;;4.50;4.10;;;;;;;17.03;60.05;63758.16;5049428;28;20213;-77
2023/09/30 02:16:51;;;;;;;9.07;4.35;;;;;;;17.04;60.78;63759.19;5049079;28;20260;-79
2023/09/30 02:19:19;;;;;;;4.45;3.97;;;;;;;17.03;60.90;63761.22;5049973;28;20427;-77
2023/09/30 02:21:46;;;;;;;6.32;4.05;;;;;;;17.02;60.95;63757.63;5049311;28;20217;-77
2023/09/30 02:24:13;;;;;;;5.93;3.80;;;;;;;17.02;61.26;63759.69;5048845;28;20219;-77
2023/09/30 02:26:40;;;;;;;5.55;4.63;;;;;;;16.96;61.54;63751.38;5050267;28;20197;-77
2023/09/30 02:29:08;;;;;;;9.18;4.30;;;;;;;16.94;61.47;63754.47;5048230;28;20229;-77
2023/09/30 02:31:36;;;;;;;8.70;4.30;;;;;;;16.97;61.13;63752.44;5035232;28;20202;-77
2023/09/30 02:34:03;;;;;;;7.20;4.38;;;;;;;16.93;59.30;63748.25;5030097;28;20270;-76
2023/09/30 02:36:30;;;;;;;7.28;4.32;;;;;;;16.86;60.74;63743.53;5028521;28;20361;-78
2023/09/30 02:38:57;;;;;;;6.93;4.63;;;;;;;16.84;60.30;63738.38;5031437;28;20198;-77
2023/09/30 02:41:24;;;;;;;6.55;4.55;;;;;;;16.86;61.59;63743.03;5028988;28;20403;-77
2023/09/30 02:43:52;;;;;;;6.68;4.82;;;;;;;16.84;61.99;63738.38;5029796;28;20202;-78
2023/09/30 02:46:22;;;;;;;12.73;5.40;;;;;;;16.80;62.15;63734.22;5030354;28;20218;-77
2023/09/30 02:48:51;;;;;;;4.93;4.50;;;;;;;16.68;62.46;63722.25;5028619;28;20194;-77
2023/09/30 02:51:18;;;;;;;7.30;4.72;;;;;;;16.62;63.68;63715.50;5030743;28;20198;-77
2023/09/30 02:53:55;;;;;;;7.32;5.20;;;;;;;16.51;64.96;63707.13;5030604;28;20198;-78
2023/09/30 02:56:24;;;;;;;7.25;4.70;;;;;;;16.42;64.78;63697.22;5029271;28;20201;-78
2023/09/30 02:58:51;;;;;;;10.45;5.25;;;;;;;16.37;63.51;63689.44;5028423;28;20432;-77
2023/09/30 03:01:19;;;;;;;8.32;4.78;;;;;;;16.34;63.99;63683.78;5028732;28;20198;-77
2023/09/30 03:03:46;;;;;;;6.85;4.25;;;;;;;16.26;65.49;63681.09;5029297;28;20217;-78
2023/09/30 03:06:15;;;;;;;4.30;3.90;;;;;;;16.18;66.53;63667.66;5029438;28;20289;-77
2023/09/30 03:08:42;;;;;;;8.25;4.03;;;;;;;16.19;64.02;63666.63;5028551;28;20194;-78
2023/09/30 03:11:10;;;;;;;4.70;4.30;;;;;;;16.21;62.77;63678.47;5029562;28;20242;-78
2023/09/30 03:13:37;;;;;;;5.82;4.30;;;;;;;16.23;62.74;63680.03;5028765;28;20254;-78
2023/09/30 03:16:05;;;;;;;7.82;3.97;;;;;;;16.27;63.47;63681.63;5029782;28;20249;-77
2023/09/30 03:18:32;;;;;;;4.55;4.15;;;;;;;16.24;64.18;63676.44;5028657;28;20214;-79
2023/09/30 03:21:01;;;;;;;8.00;4.25;;;;;;;16.26;66.10;63678.00;5028146;28;20226;-78
2023/09/30 03:23:33;;;;;;;11.77;4.00;;;;;;;16.23;63.96;63677.97;5029696;28;20198;-80
2023/09/30 03:26:00;;;;;;;5.50;4.07;;;;;;;16.20;62.68;63675.38;5025990;28;20214;-78
2023/09/30 03:28:28;;;;;;;4.50;4.10;;;;;;;16.23;62.66;63672.84;5028934;28;20194;-76
2023/09/30 03:30:56;;;;;;;4.55;4.15;;;;;;;16.24;62.96;63678.50;5035414;28;20372;-77
2023/09/30 03:33:23;;;;;;;5.32;4.07;;;;;;;16.24;64.07;63676.44;5046876;28;20289;-77
2023/09/30 03:35:51;;;;;;;11.60;4.32;;;;;;;16.24;64.79;63675.94;5048214;28;20278;-76
2023/09/30 03:38:22;;;;;;;4.03;3.70;;;;;;;16.25;64.94;63680.06;5047167;28;20380;-76
2023/09/30 03:40:50;;;;;;;6.68;4.03;;;;;;;16.29;62.99;63681.13;5048322;28;20221;-76
2023/09/30 03:43:21;;;;;;;5.35;3.95;;;;;;;16.33;64.30;63685.28;5047764;28;20204;-77
2023/09/30 03:45:48;;;;;;;7.65;4.20;;;;;;;16.30;64.15;63685.25;5046680;28;20244;-77
2023/09/30 03:48:14;;;;;;;10.32;4.10;;;;;;;16.24;64.31;63681.59;5046949;28;20189;-77
2023/09/30 03:50:41;;;;;;;9.57;4.93;;;;;;;16.29;64.58;63681.13;5045794;28;20272;-77
2023/09/30 03:53:09;;;;;;;10.38;5.55;;;;;;;16.24;64.71;63684.16;5047251;28;20208;-77
2023/09/30 03:55:36;;;;;;;8.48;4.70;;;;;;;16.21;65.49;63673.31;5048019;28;20280;-77
2023/09/30 03:58:05;;;;;;;5.63;4.57;;;;;;;16.12;66.14;63658.81;5046562;28;20201;-77
2023/09/30 04:00:32;;;;;;;7.75;5.32;;;;;;;16.08;65.67;63660.31;5046611;28;20220;-77
2023/09/30 04:02:59;;;;;;;6.35;4.90;;;;;;;16.07;65.27;63658.75;5046087;28;20204;-77
2023/09/30 04:05:29;;;;;;;5.60;4.88;;;;;;;16.10;65.32;63657.28;5046343;28;20217;-76
2023/09/30 04:07:56;;;;;;;7.93;4.90;;;;;;;15.95;70.10;63644.25;5048752;28;20204;-77
2023/09/30 04:10:24;;;;;;;4.32;3.92;;;;;;;15.90;70.05;63641.09;5046762;28;20229;-78
2023/09/30 04:12:54;;;;;;;6.90;5.35;;;;;;;15.86;69.36;63642.59;5046786;28;20404;-80
2023/09/30 04:15:23;;;;;;;6.28;5.68;;;;;;;15.83;69.31;63631.25;5044752;28;20409;-77
2023/09/30 04:17:51;;;;;;;7.63;5.15;;;;;;;15.77;69.87;63633.22;5033550;28;20198;-77
2023/09/30 04:20:22;;;;;;;7.03;5.13;;;;;;;15.61;71.68;63613.50;5044302;28;20542;-77
2023/09/30 04:22:50;;;;;;;5.18;4.70;;;;;;;15.53;73.58;63603.13;5047386;28;20197;-78
2023/09/30 04:25:21;;;;;;;8.57;5.43;;;;;;;15.53;72.88;63600.06;5033302;28;20242;-82
2023/09/30 04:27:48;;;;;;;9.35;5.13;;;;;;;15.40;72.66;63586.53;5027394;28;20187;-77
2023/09/30 04:30:15;;;;;;;7.28;5.00;;;;;;;15.33;72.97;63581.81;5029743;28;20238;-79
2023/09/30 04:32:44;;;;;;;7.93;4.85;;;;;;;15.27;73.58;63575.59;5048639;28;20228;-78
2023/09/30 04:35:11;;;;;;;10.75;5.20;;;;;;;15.23;74.92;63568.84;5048372;28;20244;-78
2023/09/30 04:37:39;;;;;;;7.70;4.72;;;;;;;15.15;73.51;63563.13;5047135;28;20261;-78
2023/09/30 04:40:15;;;;;;;7.57;4.88;;;;;;;15.11;73.52;63562.03;5047046;28;20256;-76
2023/09/30 04:42:42;;;;;;;11.15;5.05;;;;;;;15.08;73.24;63556.88;5045354;28;20578;-77
2023/09/30 04:45:16;;;;;;;4.68;4.00;;;;;;;15.05;72.05;63555.78;5045629;28;20218;-78
2023/09/30 04:47:45;;;;;;;6.93;4.03;;;;;;;15.09;71.12;63557.41;5046653;28;20236;-78
2023/09/30 04:50:16;;;;;;;9.68;4.55;;;;;;;15.11;71.41;63558.94;5047245;28;20237;-77
2023/09/30 04:52:44;;;;;;;4.65;3.72;;;;;;;15.11;71.25;63564.59;5045503;28;20225;-77
2023/09/30 04:55:12;;;;;;;11.18;4.65;;;;;;;15.11;71.54;63558.94;5046212;28;20231;-77
2023/09/30 04:57:39;;;;;;;6.05;4.28;;;;;;;15.05;74.11;63553.75;5046876;28;20418;-76
2023/09/30 05:00:10;;;;;;;6.25;4.47;;;;;;;15.04;74.51;63557.84;5047343;28;20232;-78
2023/09/30 05:02:37;;;;;;;4.88;4.43;;;;;;;15.02;74.65;63550.66;5045862;28;20220;-77
2023/09/30 05:05:07;;;;;;;10.25;5.65;;;;;;;15.07;74.93;63555.31;5045979;28;20224;-76
2023/09/30 05:07:34;;;;;;;8.23;5.32;;;;;;;15.14;76.06;63564.63;5045822;28;20204;-77
2023/09/30 05:10:05;;;;;;;5.57;4.50;;;;;;;15.14;76.88;63564.63;5045847;28;20243;-78
2023/09/30 05:12:33;;;;;;;8.02;5.43;;;;;;;15.22;75.61;63573.47;5046647;28;20222;-77
2023/09/30 05:15:01;;;;;;;11.60;5.65;;;;;;;15.12;78.16;63557.94;5046206;28;20224;-78
2023/09/30 05:17:29;;;;;;;6.30;5.75;;;;;;;15.12;78.68;63560.00;5046534;28;20268;-77
2023/09/30 05:19:58;;;;;;;8.85;6.07;;;;;;;15.17;79.05;63568.25;5047033;28;20236;-77
2023/09/30 05:22:26;;;;;;;9.52;5.15;;;;;;;15.26;79.20;63577.09;5045479;28;20248;-78
2023/09/30 05:24:54;;;;;;;7.07;5.60;;;;;;;15.33;79.97;63584.91;5046027;28;20226;-77
2023/09/30 05:27:21;;;;;;;6.95;5.43;;;;;;;15.38;79.80;63584.97;5046856;28;20198;-76
2023/09/30 05:29:48;;;;;;;7.03;4.82;;;;;;;15.50;78.23;63602.59;5046375;28;20395;-77
2023/09/30 05:32:15;;;;;;;9.48;5.07;;;;;;;15.64;80.67;63614.06;5045804;28;20513;-77
2023/09/30 05:34:43;;;;;;;9.63;5.40;;;;;;;15.71;81.43;63621.34;5045834;28;20288;-76
2023/09/30 05:37:12;;;;;;;5.68;4.75;;;;;;;15.80;81.87;63630.69;5046647;28;20424;-76
2023/09/30 05:39:41;;;;;;;6.30;5.28;;;;;;;15.90;81.05;63646.22;5046103;28;20221;-77
2023/09/30 05:42:08;;;;;;;12.73;5.35;;;;;;;16.00;79.80;63648.91;5046197;28;20201;-77
2023/09/30 05:44:35;;;;;;;9.05;5.07;;;;;;;16.16;77.52;63668.13;5046169;28;20239;-77
2023/09/30 05:47:02;;;;;;;7.80;4.63;;;;;;;16.07;78.69;63656.19;5045888;28;20265;-77
2023/09/30 05:49:29;;;;;;;5.65;5.15;;;;;;;16.24;80.07;63681.06;5050143;28;20224;-78
2023/09/30 05:51:58;;;;;;;5.80;4.53;;;;;;;16.30;79.69;63684.75;5051729;28;20296;-78
2023/09/30 05:54:25;;;;;;;6.90;4.93;;;;;;;16.34;76.94;63686.88;5050944;28;20259;-77
2023/09/30 05:56:54;;;;;;;11.30;5.85;;;;;;;16.46;73.81;63696.25;5049824;28;20198;-77
2023/09/30 05:59:21;;;;;;;13.38;7.05;;;;;;;16.61;73.19;63709.81;5051470;28;20413;-77
2023/09/30 06:01:48;;;;;;;19.05;5.85;;;;;;;16.55;72.52;63708.72;5049184;28;20409;-77
2023/09/30 06:04:15;;;;;;;7.30;5.68;;;;;;;16.60;73.89;63713.91;5050206;28;20244;-76
2023/09/30 06:06:53;;;;;;;7.82;5.78;;;;;;;16.75;73.80;63732.09;5050801;28;20198;-78
2023/09/30 06:09:22;;;;;;;11.98;6.18;;;;;;;16.86;69.92;63740.47;5050549;28;20232;-76
2023/09/30 06:11:52;;;;;;;11.02;4.97;;;;;;;16.87;68.41;63742.03;5048288;28;20538;-78
2023/09/30 06:14:20;;;;;;;10.55;6.93;;;;;;;16.99;66.72;63757.09;5049254;28;20245;-77
2023/09/30 06:16:47;;;;;;;13.10;5.45;;;;;;;17.12;66.47;63773.19;5050165;28;20198;-77
2023/09/30 06:19:14;;;;;;;5.63;5.03;;;;;;;17.21;63.54;63774.84;5048926;28;20218;-77
2023/09/30 06:21:42;;;;;;;9.23;4.70;;;;;;;17.34;61.45;63790.94;5049191;28;20505;-77
2023/09/30 06:24:09;;;;;;;7.95;5.03;;;;;;;17.37;59.65;63793.53;5047636;28;20269;-77
2023/09/30 06:26:37;;;;;;;13.35;5.13;;;;;;;17.47;59.93;63803.97;5049785;28;20214;-77
2023/09/30 06:29:06;;;;;;;15.00;6.28;;;;;;;17.47;64.70;63801.41;5049791;28;20285;-77
2023/09/30 06:31:40;;;;;;;10.50;4.80;;;;;;;17.54;60.60;63811.25;5049251;28;20229;-77
2023/09/30 06:34:11;;;;;;;7.18;3.90;;;;;;;17.46;58.03;63800.38;5048815;28;20200;-77
2023/09/30 06:36:38;;;;;;;10.88;6.60;;;;;;;17.60;62.98;63822.13;5050465;28;20280;-76
2023/09/30 06:39:05;;;;;;;16.52;7.18;;;;;;;17.71;62.82;63831.00;5047845;28;20232;-78
2023/09/30 06:41:33;;;;;;;15.63;5.20;;;;;;;17.61;59.06;63823.19;5048812;28;20204;-78
2023/09/30 06:44:00;;;;;;;11.55;5.45;;;;;;;17.49;59.07;63808.09;5048815;28;20220;-76
2023/09/30 06:46:27;;;;;;;12.10;4.45;;;;;;;17.56;58.07;63812.81;5048028;28;20197;-78
2023/09/30 06:48:56;;;;;;;10.85;4.78;;;;;;;17.65;58.21;63819.63;5050258;28;20211;-78
2023/09/30 06:51:23;;;;;;;8.15;5.38;;;;;;;17.75;59.26;63837.75;5048258;28;20504;-80
2023/09/30 06:53:50;;;;;;;16.00;5.47;;;;;;;17.79;57.90;63837.28;5049342;28;20213;-77
2023/09/30 06:56:18;;;;;;;7.65;4.88;;;;;;;17.82;57.88;63842.47;5048925;28;20201;-76
2023/09/30 06:58:46;;;;;;;6.93;4.45;;;;;;;17.87;58.16;63848.22;5048123;28;20197;-77
2023/09/30 07:01:17;;;;;;;8.95;5.22;;;;;;;18.02;58.10;63863.81;5048514;28;20224;-77
2023/09/30 07:03:45;;;;;;;12.75;4.75;;;;;;;18.21;58.45;63883.09;5048486;28;20193;-77
2023/09/30 07:06:23;;;;;;;16.60;4.80;;;;;;;18.30;58.21;63889.91;5048075;28;20522;-77
2023/09/30 07:08:53;;;;;;;7.10;5.35;;;;;;;18.39;58.20;63899.28;5049277;28;20201;-77
2023/09/30 07:11:29;;;;;;;8.20;4.93;;;;;;;18.45;56.77;63905.53;5049420;28;20233;-78
2023/09/30 07:13:57;;;;;;;10.15;5.43;;;;;;;18.68;56.15;63929.00;5048995;28;20300;-79
2023/09/30 07:16:24;;;;;;;11.38;5.18;;;;;;;18.70;54.92;63934.19;5047993;28;20198;-77
2023/09/30 07:18:51;;;;;;;12.20;5.28;;;;;;;18.76;55.44;63937.84;5048153;28;20197;-77
2023/09/30 07:21:24;;;;;;;8.20;4.50;;;;;;;18.80;54.23;63941.50;5047428;28;20205;-75
2023/09/30 07:23:52;;;;;;;9.65;4.93;;;;;;;18.82;54.38;63941.00;5048790;28;20194;-79
2023/09/30 07:26:24;;;;;;;6.95;4.97;;;;;;;19.00;53.93;63962.88;5048575;28;20197;-77
2023/09/30 07:28:53;;;;;;;11.40;4.82;;;;;;;19.15;53.63;63986.25;5049178;28;20304;-77
2023/09/30 07:31:22;;;;;;;6.38;4.60;;;;;;;19.30;50.88;63996.75;5037301;28;20244;-77
2023/09/30 07:33:50;;;;;;;5.78;4.10;;;;;;;19.42;51.04;64006.16;5028184;28;20205;-78
2023/09/30 07:36:17;;;;;;;9.93;4.80;;;;;;;19.45;51.32;64014.97;5027864;28;20194;-77
2023/09/30 07:38:47;;;;;;;9.38;5.10;;;;;;;19.63;51.18;64032.72;5028197;28;20198;-76
2023/09/30 07:41:13;;;;;;;9.45;4.75;;;;;;;19.75;49.78;64037.47;5027149;28;20228;-77
2023/09/30 07:43:41;;;;;;;25.92;14.80;;;;;;;19.78;49.90;64043.19;5027261;28;20198;-78
2023/09/30 07:46:08;;;;;;;8.70;4.40;;;;;;;19.97;48.20;64068.16;5028341;28;20256;-79
2023/09/30 07:48:36;;;;;;;6.63;4.13;;;;;;;20.00;46.98;64066.16;5028422;28;20202;-78
2023/09/30 07:51:04;;;;;;;8.90;4.80;;;;;;;20.06;46.29;64072.94;5028598;28;20237;-78
2023/09/30 07:53:32;;;;;;;8.45;3.97;;;;;;;20.22;47.00;64091.72;5028010;28;20514;-78
2023/09/30 07:56:01;;;;;;;22.45;11.55;;;;;;;20.35;48.31;64105.25;5028147;28;20228;-78
2023/09/30 07:58:28;;;;;;;17.08;10.73;;;;;;;20.60;48.08;64133.97;5029572;28;20233;-78
2023/09/30 08:00:56;;;;;;;5.30;4.88;;;;;;;20.65;45.90;64136.59;5029101;28;20222;-78
2023/09/30 08:03:23;;;;;;;16.17;6.18;;;;;;;20.67;45.15;64138.69;5028963;28;20424;-78
2023/09/30 08:05:50;;;;;;;8.10;5.88;;;;;;;20.83;44.12;64155.38;5029079;28;20228;-78
2023/09/30 08:08:17;;;;;;;7.72;5.28;;;;;;;20.87;41.90;64156.97;5028399;28;20202;-76
2023/09/30 08:10:44;;;;;;;8.93;5.75;;;;;;;20.85;42.04;64159.53;5027348;28;20232;-78
2023/09/30 08:13:13;;;;;;;6.82;5.68;;;;;;;20.90;41.95;64157.50;5028112;28;20562;-78
2023/09/30 08:15:40;;;;;;;20.38;10.50;;;;;;;20.99;41.96;64166.91;5029437;28;20222;-78
2023/09/30 08:18:08;;;;;;;14.45;7.60;;;;;;;21.20;41.25;64193.50;5030324;28;20217;-78
2023/09/30 08:20:36;;;;;;;9.40;6.80;;;;;;;21.42;43.23;64216.47;5027935;28;20218;-77
2023/09/30 08:23:04;;;;;;;13.68;7.32;;;;;;;21.59;41.34;64234.22;5028663;28;20198;-77
2023/09/30 08:25:31;;;;;;;10.30;7.18;;;;;;;21.69;40.31;64245.22;5029179;28;20242;-77
2023/09/30 08:27:58;;;;;;;7.38;6.38;;;;;;;21.82;40.01;64255.69;5027250;28;20209;-77
2023/09/30 08:30:28;;;;;;;11.40;7.43;;;;;;;21.94;40.73;64265.66;5032241;28;20240;-78
2023/09/30 08:32:59;;;;;;;10.80;7.82;;;;;;;22.16;40.05;64295.91;5048953;28;20229;-80
2023/09/30 08:35:26;;;;;;;8.25;6.82;;;;;;;22.18;39.26;64298.50;5049146;28;20228;-78
2023/09/30 08:37:53;;;;;;;12.57;8.00;;;;;;;22.06;38.08;64280.78;5047985;28;20263;-78
2023/09/30 08:40:21;;;;;;;10.65;6.75;;;;;;;22.15;38.95;64292.25;5048265;28;20335;-78
2023/09/30 08:42:52;;;;;;;13.35;7.20;;;;;;;22.03;38.88;64277.13;5047154;28;20236;-77
2023/09/30 08:45:29;;;;;;;19.27;6.57;;;;;;;21.89;38.86;64263.00;5049577;28;20251;-79
2023/09/30 08:48:04;;;;;;;8.75;6.55;;;;;;;22.10;38.68;64287.56;5050986;28;20216;-80
2023/09/30 08:50:32;;;;;;;12.55;7.22;;;;;;;22.15;39.24;64297.44;5049295;28;20247;-77
2023/09/30 08:53:03;;;;;;;12.00;6.60;;;;;;;22.32;38.68;64307.94;5049788;28;20248;-78
2023/09/30 08:55:34;;;;;;;7.90;5.90;;;;;;;22.57;37.58;64336.69;5048685;28;20225;-78
2023/09/30 08:58:03;;;;;;;10.18;6.47;;;;;;;22.69;37.55;64351.34;5048722;28;20387;-79
2023/09/30 09:00:54;;;;;;;10.52;6.40;;;;;;;22.86;40.23;64361.84;5048397;28;20277;-80
2023/09/30 09:03:23;;;;;;;7.15;5.72;;;;;;;;;;5052483;28;20260;-79
2023/09/30 09:05:56;;;;;;;8.93;6.15;;;;;;;23.09;37.07;64392.63;5047868;28;20284;-79
2023/09/30 09:08:24;;;;;;;10.82;7.00;;;;;;;23.07;36.08;64391.06;5051033;28;20201;-79
2023/09/30 09:10:55;;;;;;;7.00;6.28;;;;;;;;;;5048138;28;20243;-77
2023/09/30 09:13:23;;;;;;;8.88;6.32;;;;;;;22.94;37.34;64377.47;5048446;28;20205;-79
2023/09/30 09:16:07;;;;;;;8.75;6.20;;;;;;;22.99;37.80;64382.69;5049644;28;20227;-78
2023/09/30 09:18:36;;;;;;;16.10;6.15;;;;;;;22.96;36.21;64376.44;5050856;28;20200;-78
2023/09/30 09:21:11;;;;;;;15.07;6.63;;;;;;;22.75;36.88;64352.41;5049407;28;20248;-80
2023/09/30 09:23:43;;;;;;;12.63;6.70;;;;;;;22.74;37.49;64357.06;5050263;28;20191;-80
2023/09/30 09:26:12;;;;;;;7.65;6.45;;;;;;;22.87;36.88;64368.06;5054012;28;20229;-79
2023/09/30 09:28:39;;;;;;;9.77;6.70;;;;;;;23.04;37.12;64384.81;5053967;28;20235;-79
2023/09/30 09:31:28;;;;;;;13.30;7.35;;;;;;;23.13;37.77;64392.13;5044261;28;20279;-78
2023/09/30 09:33:55;;;;;;;8.77;6.05;;;;;;;23.13;37.01;64397.34;5033330;28;20200;-77
2023/09/30 09:36:23;;;;;;;9.00;6.45;;;;;;;22.81;36.79;64359.19;5033739;28;20379;-79
2023/09/30 09:38:53;;;;;;;8.05;6.25;;;;;;;22.90;37.94;64370.69;5033126;28;20371;-78
2023/09/30 09:41:20;;;;;;;9.07;5.65;;;;;;;23.17;38.88;64398.94;5033254;28;20265;-78
2023/09/30 09:43:51;;;;;;;13.30;6.30;;;;;;;23.40;36.56;64425.09;5032989;28;20201;-80
2023/09/30 09:46:19;;;;;;;11.45;5.70;;;;;;;23.35;36.33;64419.84;5031902;28;20206;-78
2023/09/30 09:48:48;;;;;;;7.35;5.65;;;;;;;23.29;36.18;64410.97;5032130;28;20549;-77
2023/09/30 09:51:16;;;;;;;8.00;5.22;;;;;;;23.42;36.76;64427.16;5032678;28;20208;-78
2023/09/30 09:53:44;;;;;;;7.00;5.55;;;;;;;23.41;36.16;64418.31;5031656;28;20217;-78
2023/09/30 09:56:13;;;;;;;5.30;4.80;;;;;;;23.13;35.08;64389.53;5031413;28;20222;-77
2023/09/30 09:58:42;;;;;;;9.65;5.25;;;;;;;23.13;35.41;64394.22;5032002;28;20209;-77
2023/09/30 10:01:11;;;;;;;4.82;4.43;;;;;;;22.90;35.03;64373.28;5030021;28;20222;-77
2023/09/30 10:03:40;;;;;;;11.38;5.22;;;;;;;22.88;35.56;64369.09;5032431;28;20200;-78
2023/09/30 10:06:09;;;;;;;8.02;5.15;;;;;;;22.80;35.96;64360.22;5030813;28;20218;-77
2023/09/30 10:08:42;;;;;;;7.63;5.88;;;;;;;22.83;36.45;64369.06;5031271;28;20240;-78
2023/09/30 10:11:19;;;;;;;11.70;4.95;;;;;;;23.00;36.59;64378.03;5031598;28;20226;-77
2023/09/30 10:13:53;;;;;;;7.88;4.82;;;;;;;23.11;35.92;64387.44;5031780;28;20189;-78
2023/09/30 10:16:53;;;;;;;6.97;5.40;;;;;;;23.27;34.73;64403.66;5031358;28;20236;-78
2023/09/30 10:19:23;;;;;;;5.95;5.40;;;;;;;23.37;34.17;64419.84;5035528;28;20253;-81
2023/09/30 10:22:24;;;;;;;6.28;5.20;;;;;;;23.39;34.95;64421.44;5036996;28;20194;-79
2023/09/30 10:24:53;;;;;;;11.43;4.35;;;;;;;23.25;35.48;64407.28;5031409;28;20537;-78
2023/09/30 10:27:47;;;;;;;7.45;5.03;;;;;;;23.16;35.71;64394.75;5031092;28;20205;-78
2023/09/30 10:30:16;;;;;;;7.90;4.57;;;;;;;23.30;37.08;64412.00;4999514;28;20237;-79
2023/09/30 10:33:15;;;;;;;8.48;4.55;;;;;;;23.53;35.12;64436.06;5056284;28;20260;-77
2023/09/30 10:35:54;;;;;;;4.75;4.32;;;;;;;23.46;34.56;64426.69;5051461;28;20221;-80
2023/09/30 10:38:41;;;;;;;7.68;4.50;;;;;;;23.59;34.01;64439.75;5051553;28;20217;-79
2023/09/30 10:41:09;;;;;;;4.22;3.78;;;;;;;23.19;34.19;64403.09;5049641;28;20233;-79
2023/09/30 10:43:44;;;;;;;5.75;4.40;;;;;;;23.22;33.99;64403.63;5052663;28;20197;-78
2023/09/30 10:46:36;;;;;;;5.57;4.25;;;;;;;23.44;34.67;64427.19;5053134;28;20201;-78
2023/09/30 10:49:35;;;;;;;8.25;4.18;;;;;;;23.62;34.84;64440.81;5042870;28;20220;-77
2023/09/30 10:52:03;;;;;;;8.52;4.30;;;;;;;23.65;34.34;64449.16;5051214;28;20538;-78
2023/09/30 10:54:33;;;;;;;5.53;3.45;;;;;;;23.76;32.68;64462.75;5050702;28;20255;-80
2023/09/30 10:57:03;;;;;;;5.68;3.22;;;;;;;23.62;32.40;64442.91;5052270;28;20288;-78
2023/09/30 10:59:31;;;;;;;4.05;3.35;;;;;;;23.38;33.46;64415.72;5050596;28;20232;-77
2023/09/30 11:01:59;;;;;;;12.32;3.95;;;;;;;23.31;33.83;64411.00;5054926;28;20369;-78
2023/09/30 11:04:28;;;;;;;5.45;3.42;;;;;;;23.19;33.81;64401.03;5050592;28;20256;-78
2023/09/30 11:06:58;;;;;;;4.10;3.17;;;;;;;22.86;33.94;64366.50;5051430;28;20198;-77
2023/09/30 11:09:24;;;;;;;3.78;3.38;;;;;;;22.54;33.57;64333.03;5050721;28;20217;-77
2023/09/30 11:11:54;;;;;;;4.63;3.80;;;;;;;22.64;34.51;64346.63;5049223;28;20221;-78
2023/09/30 11:14:22;;;;;;;10.07;3.70;;;;;;;22.97;35.47;64378.00;5053123;28;20309;-79
2023/09/30 11:16:51;;;;;;;4.20;3.70;;;;;;;23.20;34.19;64394.25;5053110;28;20499;-77
2023/09/30 11:19:22;;;;;;;5.70;3.92;;;;;;;23.20;32.92;64402.06;5050745;28;20221;-78
2023/09/30 11:21:51;;;;;;;6.30;3.72;;;;;;;23.32;33.07;64411.50;5051801;28;20269;-77
2023/09/30 11:24:20;;;;;;;3.08;2.85;;;;;;;23.43;33.36;64425.63;5049490;28;20224;-80
2023/09/30 11:26:49;;;;;;;3.38;2.85;;;;;;;23.31;32.83;64410.47;5052107;28;20202;-77
2023/09/30 11:29:18;;;;;;;6.63;3.50;;;;;;;23.10;33.36;64394.19;5049105;28;20213;-78
2023/09/30 11:31:48;;;;;;;6.05;3.25;;;;;;;22.92;33.42;64370.69;5049844;28;20381;-77
2023/09/30 11:34:17;;;;;;;4.35;3.67;;;;;;;22.97;33.52;64377.50;5049534;28;20281;-79
2023/09/30 11:36:49;;;;;;;5.53;3.85;;;;;;;23.21;33.45;64403.09;5050520;28;20232;-79
2023/09/30 11:39:24;;;;;;;7.47;3.50;;;;;;;23.32;32.70;64409.44;5051800;28;20232;-76
2023/09/30 11:41:52;;;;;;;3.33;3.13;;;;;;;23.54;33.72;64440.25;5051116;28;20201;-79